createdAt,value
2018-12-27T00:00:23.907Z,20.40
2018-12-27T00:02:55.032Z,20.02
2018-12-27T00:05:22.806Z,19.27
2018-12-27T00:07:50.874Z,18.37
2018-12-27T00:10:21.120Z,17.82
2018-12-27T00:12:50.365Z,19.80
2018-12-27T00:15:18.645Z,18.65
2018-12-27T00:17:46.807Z,18.55
2018-12-27T00:20:15.006Z,19.23
2018-12-27T00:22:42.940Z,16.20
2018-12-27T00:25:10.933Z,18.02
2018-12-27T00:27:38.981Z,17.65
2018-12-27T00:30:07.105Z,19.10
2018-12-27T00:32:35.147Z,18.87
2018-12-27T00:44:29.817Z,18.07
2018-12-27T00:46:57.452Z,17.27
2018-12-27T00:49:25.193Z,17.48
2018-12-27T00:51:52.760Z,18.42
2018-12-27T00:54:20.335Z,17.98
2018-12-27T00:56:47.860Z,19.07
2018-12-27T00:59:15.400Z,20.37
2018-12-27T01:01:43.107Z,20.55
2018-12-27T01:04:10.745Z,19.00
2018-12-27T01:06:38.327Z,18.48
2018-12-27T01:09:06.009Z,20.75
2018-12-27T01:11:33.582Z,16.97
2018-12-27T01:14:01.110Z,16.97
2018-12-27T01:16:28.610Z,18.73
2018-12-27T01:18:56.295Z,18.77
2018-12-27T01:21:23.790Z,20.43
2018-12-27T01:23:51.425Z,18.80
2018-12-27T01:26:19.008Z,18.52
2018-12-27T01:28:46.750Z,19.40
2018-12-27T01:31:14.231Z,18.70
2018-12-27T01:33:41.785Z,17.82
2018-12-27T01:36:09.440Z,17.10
2018-12-27T01:38:36.988Z,18.55
2018-12-27T01:41:04.548Z,15.40
2018-12-27T01:43:32.762Z,17.00
2018-12-27T01:46:00.503Z,16.65
2018-12-27T01:48:28.126Z,16.82
2018-12-27T01:51:08.414Z,17.12
2018-12-27T01:53:35.969Z,17.37
2018-12-27T01:56:03.743Z,16.97
2018-12-27T01:58:31.518Z,16.85
2018-12-27T02:00:59.059Z,17.07
2018-12-27T02:03:26.818Z,16.62
2018-12-27T02:05:54.432Z,14.03
2018-12-27T02:08:22.190Z,14.63
2018-12-27T02:10:49.797Z,14.10
2018-12-27T02:13:17.298Z,16.55
2018-12-27T02:15:44.998Z,15.32
2018-12-27T02:18:12.702Z,15.95
2018-12-27T02:20:40.224Z,16.52
2018-12-27T02:23:07.728Z,16.17
2018-12-27T02:25:35.398Z,15.45
2018-12-27T02:28:03.130Z,14.85
2018-12-27T02:30:30.652Z,16.05
2018-12-27T02:32:58.184Z,14.98
2018-12-27T02:35:25.803Z,19.77
2018-12-27T02:37:53.441Z,15.90
2018-12-27T02:40:21.145Z,16.10
2018-12-27T02:42:48.710Z,15.03
2018-12-27T02:45:16.194Z,16.30
2018-12-27T02:47:43.717Z,16.73
2018-12-27T02:50:11.243Z,15.20
2018-12-27T02:52:38.837Z,13.93
2018-12-27T02:55:06.323Z,15.58
2018-12-27T02:57:33.886Z,15.20
2018-12-27T03:00:01.463Z,14.90
2018-12-27T03:02:29.285Z,14.07
2018-12-27T03:04:56.809Z,15.10
2018-12-27T03:07:24.521Z,14.93
2018-12-27T03:09:52.018Z,13.60
2018-12-27T03:12:19.617Z,13.28
2018-12-27T03:14:47.106Z,15.05
2018-12-27T03:17:14.755Z,15.38
2018-12-27T03:19:42.273Z,14.45
2018-12-27T03:22:10.775Z,14.43
2018-12-27T03:24:38.378Z,14.90
2018-12-27T03:27:05.877Z,15.05
2018-12-27T03:29:33.461Z,14.87
2018-12-27T03:32:01.181Z,12.85
2018-12-27T03:34:28.769Z,12.45
2018-12-27T03:36:56.276Z,14.75
2018-12-27T03:39:23.870Z,13.10
2018-12-27T03:41:51.621Z,12.85
2018-12-27T03:44:19.142Z,15.00
2018-12-27T03:46:46.635Z,12.47
2018-12-27T03:49:14.243Z,12.40
2018-12-27T03:51:41.725Z,15.10
2018-12-27T03:54:09.289Z,14.68
2018-12-27T03:56:36.774Z,12.93
2018-12-27T03:59:04.330Z,15.65
2018-12-27T04:01:32.026Z,15.63
2018-12-27T04:04:01.570Z,13.75
2018-12-27T04:06:28.990Z,13.43
2018-12-27T04:08:56.649Z,15.45
2018-12-27T04:11:24.197Z,13.80
2018-12-27T04:13:51.772Z,13.78
2018-12-27T04:16:19.300Z,15.20
2018-12-27T04:18:46.895Z,14.00
2018-12-27T04:21:14.478Z,15.05
2018-12-27T04:23:42.190Z,14.80
2018-12-27T04:26:09.911Z,14.47
2018-12-27T04:28:37.468Z,15.25
2018-12-27T04:31:05.148Z,14.78
2018-12-27T04:33:32.892Z,16.48
2018-12-27T04:36:01.098Z,17.45
2018-12-27T04:38:28.839Z,18.50
2018-12-27T04:40:56.592Z,15.13
2018-12-27T04:43:25.175Z,16.30
2018-12-27T04:45:52.662Z,16.27
2018-12-27T04:48:20.287Z,16.62
2018-12-27T04:50:48.075Z,15.72
2018-12-27T04:53:15.741Z,14.28
2018-12-27T04:55:44.393Z,15.93
2018-12-27T04:58:12.841Z,14.38
2018-12-27T05:00:40.391Z,14.70
2018-12-27T05:03:07.978Z,15.55
2018-12-27T05:05:35.555Z,15.83
2018-12-27T05:08:04.227Z,16.27
2018-12-27T05:10:31.783Z,15.63
2018-12-27T05:12:59.285Z,16.23
2018-12-27T05:15:27.446Z,15.08
2018-12-27T05:17:55.101Z,15.88
2018-12-27T05:20:22.748Z,15.72
2018-12-27T05:22:50.333Z,14.07
2018-12-27T05:25:18.300Z,15.03
2018-12-27T05:27:45.962Z,13.40
2018-12-27T05:30:13.542Z,14.20
2018-12-27T05:32:41.338Z,14.23
2018-12-27T05:35:08.919Z,13.60
2018-12-27T05:37:36.479Z,12.80
2018-12-27T05:40:04.523Z,13.98
2018-12-27T05:42:32.442Z,15.65
2018-12-27T05:45:00.242Z,15.55
2018-12-27T05:47:27.890Z,14.43
2018-12-27T05:49:55.399Z,15.53
2018-12-27T05:52:22.913Z,14.87
2018-12-27T05:54:50.954Z,14.35
2018-12-27T05:57:18.515Z,14.68
2018-12-27T05:59:46.246Z,14.63
2018-12-27T06:02:13.746Z,16.67
2018-12-27T06:04:41.257Z,16.57
2018-12-27T06:07:08.762Z,14.78
2018-12-27T06:09:36.393Z,15.15
2018-12-27T06:12:03.931Z,13.93
2018-12-27T06:14:31.399Z,15.05
2018-12-27T06:16:59.084Z,15.45
2018-12-27T06:19:26.561Z,17.48
2018-12-27T06:21:54.092Z,17.50
2018-12-27T06:24:21.665Z,18.55
2018-12-27T06:26:49.226Z,19.52
2018-12-27T06:29:16.687Z,18.07
2018-12-27T06:31:44.244Z,17.65
2018-12-27T06:34:11.792Z,17.35
2018-12-27T06:36:39.461Z,17.15
2018-12-27T06:39:06.958Z,14.90
2018-12-27T06:41:34.806Z,14.95
2018-12-27T06:44:02.318Z,16.45
2018-12-27T06:46:30.915Z,14.03
2018-12-27T06:49:00.098Z,14.80
2018-12-27T06:51:27.914Z,14.30
2018-12-27T06:53:55.400Z,13.88
2018-12-27T06:56:23.310Z,13.18
2018-12-27T06:58:50.962Z,13.20
2018-12-27T07:01:18.656Z,13.85
2018-12-27T07:03:46.247Z,13.65
2018-12-27T07:06:13.695Z,12.47
2018-12-27T07:08:41.234Z,13.25
2018-12-27T07:11:08.759Z,12.35
2018-12-27T07:13:36.275Z,11.65
2018-12-27T07:16:03.808Z,12.00
2018-12-27T07:18:31.435Z,12.75
2018-12-27T07:20:59.155Z,14.43
2018-12-27T07:23:26.730Z,12.80
2018-12-27T07:25:54.288Z,12.53
2018-12-27T07:28:21.830Z,11.93
2018-12-27T07:30:49.366Z,12.47
2018-12-27T07:33:16.887Z,11.90
2018-12-27T07:35:44.492Z,13.35
2018-12-27T07:38:12.214Z,13.10
2018-12-27T07:40:39.851Z,12.37
2018-12-27T07:43:07.330Z,12.47
2018-12-27T07:45:34.953Z,15.60
2018-12-27T07:48:02.539Z,17.27
2018-12-27T07:50:30.475Z,15.15
2018-12-27T07:52:58.155Z,16.52
2018-12-27T07:55:25.703Z,13.18
2018-12-27T07:57:53.271Z,12.73
2018-12-27T08:00:21.101Z,14.07
2018-12-27T08:02:49.269Z,11.25
2018-12-27T08:05:16.866Z,14.23
2018-12-27T08:07:45.065Z,13.20
2018-12-27T08:10:12.567Z,13.40
2018-12-27T08:12:40.260Z,13.72
2018-12-27T08:15:07.824Z,11.75
2018-12-27T08:17:35.579Z,11.48
2018-12-27T08:20:03.863Z,10.45
2018-12-27T08:22:31.462Z,11.12
2018-12-27T08:24:59.170Z,9.98
2018-12-27T08:27:26.722Z,10.55
2018-12-27T08:29:54.272Z,15.08
2018-12-27T08:32:21.843Z,26.77
2018-12-27T08:34:49.325Z,14.77
2018-12-27T08:37:16.866Z,12.05
2018-12-27T08:39:44.791Z,11.78
2018-12-27T08:42:12.732Z,11.95
2018-12-27T08:44:40.490Z,12.13
2018-12-27T08:47:08.177Z,12.10
2018-12-27T08:49:35.992Z,11.60
2018-12-27T08:52:03.795Z,11.00
2018-12-27T08:54:31.410Z,12.73
2018-12-27T08:56:59.057Z,11.83
2018-12-27T08:59:26.628Z,13.30
2018-12-27T09:01:55.693Z,13.97
2018-12-27T09:04:23.526Z,13.00
2018-12-27T09:06:51.094Z,10.40
2018-12-27T09:09:18.595Z,11.17
2018-12-27T09:11:46.076Z,11.63
2018-12-27T09:14:13.681Z,13.00
2018-12-27T09:16:41.315Z,11.80
2018-12-27T09:19:08.894Z,10.77
2018-12-27T09:21:36.576Z,10.93
2018-12-27T09:24:04.271Z,12.30
2018-12-27T09:26:32.080Z,11.50
2018-12-27T09:28:59.623Z,11.07
2018-12-27T09:31:27.154Z,11.07
2018-12-27T09:33:54.846Z,10.13
2018-12-27T09:36:22.374Z,10.70
2018-12-27T09:38:49.918Z,9.60
2018-12-27T09:41:17.455Z,10.77
2018-12-27T09:43:45.026Z,10.40
2018-12-27T09:46:12.591Z,9.13
2018-12-27T09:48:40.441Z,9.83
2018-12-27T09:51:07.997Z,10.27
2018-12-27T09:53:35.753Z,9.30
2018-12-27T09:56:03.355Z,10.13
2018-12-27T09:58:31.410Z,10.10
2018-12-27T10:00:59.174Z,10.73
2018-12-27T10:03:26.733Z,12.70
2018-12-27T10:05:54.611Z,11.60
2018-12-27T10:08:22.218Z,9.47
2018-12-27T10:10:50.736Z,9.50
2018-12-27T10:13:18.279Z,9.80
2018-12-27T10:15:45.889Z,8.17
2018-12-27T10:18:13.481Z,8.17
2018-12-27T10:20:41.411Z,8.70
2018-12-27T10:23:09.558Z,9.07
2018-12-27T10:25:39.841Z,8.67
2018-12-27T10:28:07.479Z,8.93
2018-12-27T10:30:35.104Z,8.00
2018-12-27T10:33:02.628Z,10.10
2018-12-27T10:35:30.334Z,9.07
2018-12-27T10:37:58.050Z,10.40
2018-12-27T10:40:25.546Z,9.57
2018-12-27T10:42:53.071Z,10.30
2018-12-27T10:45:20.538Z,9.47
2018-12-27T10:47:48.064Z,10.53
2018-12-27T10:50:16.913Z,10.80
2018-12-27T10:52:44.559Z,11.67
2018-12-27T10:55:12.099Z,12.90
2018-12-27T10:57:39.720Z,11.97
2018-12-27T11:00:09.308Z,10.93
2018-12-27T11:02:36.852Z,9.23
2018-12-27T11:05:04.738Z,8.67
2018-12-27T11:07:32.380Z,8.93
2018-12-27T11:10:00.042Z,7.73
2018-12-27T11:12:27.907Z,7.17
2018-12-27T11:14:55.524Z,7.50
2018-12-27T11:17:23.333Z,7.50
2018-12-27T11:19:51.161Z,6.93
2018-12-27T11:22:18.720Z,6.93
2018-12-27T11:24:46.288Z,6.53
2018-12-27T11:27:13.875Z,7.93
2018-12-27T11:29:41.546Z,6.97
2018-12-27T11:32:09.138Z,8.67
2018-12-27T11:34:36.771Z,7.30
2018-12-27T11:37:04.315Z,12.67
2018-12-27T11:39:31.931Z,31.90
2018-12-27T11:41:59.737Z,9.70
2018-12-27T11:44:27.248Z,60.20
2018-12-27T11:46:54.946Z,16.93
2018-12-27T11:49:22.605Z,8.80
2018-12-27T11:51:50.075Z,7.83
2018-12-27T11:54:17.743Z,7.97
2018-12-27T11:56:45.466Z,11.90
2018-12-27T11:59:13.083Z,11.30
2018-12-27T12:01:40.654Z,10.07
2018-12-27T12:04:08.312Z,11.00
2018-12-27T12:06:37.977Z,10.60
2018-12-27T12:09:06.416Z,10.30
2018-12-27T12:11:33.951Z,10.77
2018-12-27T12:14:01.681Z,10.17
2018-12-27T12:16:29.382Z,10.17
2018-12-27T12:18:57.850Z,11.43
2018-12-27T12:21:25.408Z,10.83
2018-12-27T12:23:52.959Z,9.53
2018-12-27T12:26:20.500Z,10.50
2018-12-27T12:28:48.038Z,9.27
2018-12-27T12:31:15.673Z,11.67
2018-12-27T12:33:43.338Z,10.20
2018-12-27T12:36:11.130Z,10.23
2018-12-27T12:38:39.286Z,9.77
2018-12-27T12:41:06.970Z,8.87
2018-12-27T12:43:35.249Z,9.00
2018-12-27T12:46:03.725Z,9.67
2018-12-27T12:48:34.908Z,8.93
2018-12-27T12:51:02.836Z,9.30
2018-12-27T12:53:32.104Z,9.30
2018-12-27T12:56:00.228Z,8.30
2018-12-27T12:58:28.046Z,8.50
2018-12-27T13:00:55.795Z,9.03
2018-12-27T13:03:23.547Z,9.30
2018-12-27T13:05:51.430Z,9.13
2018-12-27T13:08:19.784Z,9.90
2018-12-27T13:10:47.466Z,10.50
2018-12-27T13:13:15.264Z,10.27
2018-12-27T13:15:43.272Z,8.33
2018-12-27T13:18:11.151Z,7.87
2018-12-27T13:20:38.842Z,8.50
2018-12-27T13:23:06.570Z,9.10
2018-12-27T13:25:34.291Z,9.20
2018-12-27T13:28:05.021Z,9.07
2018-12-27T13:30:40.961Z,8.43
2018-12-27T13:33:08.965Z,9.00
2018-12-27T13:35:37.054Z,8.37
2018-12-27T13:38:04.723Z,8.23
2018-12-27T13:40:32.407Z,9.40
2018-12-27T13:42:59.912Z,9.30
2018-12-27T13:45:27.628Z,10.00
2018-12-27T13:47:55.355Z,10.23
2018-12-27T13:50:22.976Z,9.23
2018-12-27T13:52:50.691Z,9.20
2018-12-27T13:55:18.331Z,11.43
2018-12-27T13:57:46.228Z,9.53
2018-12-27T14:00:13.913Z,10.10
2018-12-27T14:02:43.390Z,9.53
2018-12-27T14:05:11.091Z,9.30
2018-12-27T14:07:38.740Z,10.60
2018-12-27T14:10:06.846Z,9.83
2018-12-27T14:12:34.513Z,10.20
2018-12-27T14:15:02.210Z,9.53
2018-12-27T14:17:30.014Z,9.77
2018-12-27T14:19:57.546Z,9.97
2018-12-27T14:22:25.124Z,8.37
2018-12-27T14:24:57.864Z,9.43
2018-12-27T14:27:22.153Z,8.90
2018-12-27T14:29:49.847Z,8.30
2018-12-27T14:32:17.411Z,9.63
2018-12-27T14:34:48.958Z,9.30
2018-12-27T14:37:16.696Z,8.40
2018-12-27T14:39:44.283Z,8.13
2018-12-27T14:42:11.942Z,8.43
2018-12-27T14:44:39.461Z,8.17
2018-12-27T14:47:08.091Z,7.77
2018-12-27T14:49:35.736Z,9.57
2018-12-27T14:52:03.720Z,8.13
2018-12-27T14:54:31.587Z,8.80
2018-12-27T14:56:59.198Z,7.80
2018-12-27T14:59:26.836Z,8.63
2018-12-27T15:01:54.883Z,8.47
2018-12-27T15:04:22.562Z,7.77
2018-12-27T15:06:50.499Z,9.00
2018-12-27T15:09:18.483Z,7.53
2018-12-27T15:11:46.247Z,8.83
2018-12-27T15:14:14.934Z,7.70
2018-12-27T15:16:42.697Z,7.67
2018-12-27T15:19:10.387Z,9.23
2018-12-27T15:21:37.897Z,7.87
2018-12-27T15:24:05.629Z,9.00
2018-12-27T15:26:33.296Z,9.80
2018-12-27T15:29:00.899Z,8.50
2018-12-27T15:31:28.548Z,9.17
2018-12-27T15:33:56.121Z,9.43
2018-12-27T15:36:23.784Z,8.83
2018-12-27T15:38:51.357Z,9.70
2018-12-27T15:41:18.913Z,9.33
2018-12-27T15:43:46.487Z,9.10
2018-12-27T15:46:14.009Z,9.50
2018-12-27T15:48:42.105Z,9.67
2018-12-27T15:51:09.957Z,11.40
2018-12-27T15:53:37.729Z,11.70
2018-12-27T15:56:05.494Z,11.93
2018-12-27T15:58:33.278Z,14.10
2018-12-27T16:01:00.999Z,13.20
2018-12-27T16:03:28.786Z,13.70
2018-12-27T16:05:56.314Z,14.47
2018-12-27T16:08:23.862Z,13.80
2018-12-27T16:10:51.870Z,14.93
2018-12-27T16:13:19.407Z,14.17
2018-12-27T16:15:47.726Z,13.47
2018-12-27T16:18:15.509Z,15.00
2018-12-27T16:20:43.242Z,15.83
2018-12-27T16:23:10.900Z,14.57
2018-12-27T16:25:38.487Z,15.90
2018-12-27T16:28:06.096Z,15.90
2018-12-27T16:30:33.729Z,14.73
2018-12-27T16:33:01.402Z,18.13
2018-12-27T16:35:29.228Z,17.57
2018-12-27T16:37:56.892Z,17.80
2018-12-27T16:40:24.791Z,17.60
2018-12-27T16:42:52.323Z,17.98
2018-12-27T16:45:32.661Z,17.42
2018-12-27T16:48:00.938Z,17.90
2018-12-27T16:50:28.704Z,20.90
2018-12-27T16:52:56.605Z,19.63
2018-12-27T16:55:24.333Z,20.80
2018-12-27T16:57:52.146Z,23.80
2018-12-27T17:00:20.086Z,21.37
2018-12-27T17:02:47.967Z,19.27
2018-12-27T17:05:15.750Z,17.10
2018-12-27T17:07:43.468Z,19.87
2018-12-27T17:10:11.333Z,19.43
2018-12-27T17:12:39.150Z,21.87
2018-12-27T17:15:06.913Z,19.23
2018-12-27T17:17:34.803Z,89.37
2018-12-27T17:20:02.598Z,20.03
2018-12-27T17:22:30.331Z,19.50
2018-12-27T17:24:58.190Z,19.90
2018-12-27T17:27:31.847Z,19.70
2018-12-27T17:30:00.023Z,23.85
2018-12-27T17:32:27.914Z,22.70
2018-12-27T17:34:55.811Z,22.15
2018-12-27T17:37:23.607Z,21.30
2018-12-27T17:39:51.408Z,21.50
2018-12-27T17:42:19.421Z,20.08
2018-12-27T17:44:47.345Z,26.30
2018-12-27T17:47:15.278Z,28.00
2018-12-27T17:49:43.253Z,23.47
2018-12-27T17:52:11.120Z,21.60
2018-12-27T17:54:39.326Z,21.52
2018-12-27T17:57:07.694Z,22.87
2018-12-27T17:59:35.999Z,22.25
2018-12-27T18:02:04.032Z,22.80
2018-12-27T18:07:11.292Z,20.48
2018-12-27T18:09:39.677Z,20.90
2018-12-27T18:12:08.823Z,19.65
2018-12-27T18:14:36.953Z,19.62
2018-12-27T18:17:05.363Z,19.82
2018-12-27T18:19:33.506Z,19.73
2018-12-27T18:22:01.773Z,20.02
2018-12-27T18:24:30.075Z,20.82
2018-12-27T18:26:58.738Z,20.80
2018-12-27T18:29:27.743Z,20.25
2018-12-27T18:31:57.931Z,21.35
2018-12-27T18:34:26.341Z,21.07
2018-12-27T18:36:55.023Z,20.85
2018-12-27T18:39:23.565Z,18.95
2018-12-27T18:41:52.084Z,19.25
2018-12-27T18:44:19.987Z,18.15
2018-12-27T18:46:47.729Z,19.30
2018-12-27T18:49:20.658Z,19.15
2018-12-27T18:51:45.182Z,19.55
2018-12-27T18:54:13.097Z,17.62
2018-12-27T18:56:40.907Z,19.75
2018-12-27T18:59:09.325Z,22.05
2018-12-27T19:01:37.196Z,19.87
2018-12-27T19:04:05.024Z,21.45
2018-12-27T19:06:33.128Z,21.90
2018-12-27T19:09:00.969Z,20.55
2018-12-27T19:12:26.077Z,21.75
2018-12-27T19:14:58.601Z,22.48
2018-12-27T19:17:31.299Z,22.32
2018-12-27T19:19:59.571Z,21.55
2018-12-27T19:22:51.155Z,20.60
2018-12-27T19:25:19.038Z,20.70
2018-12-27T19:27:46.802Z,21.80
2018-12-27T19:30:14.646Z,21.35
2018-12-27T19:32:42.590Z,22.93
2018-12-27T19:35:10.356Z,23.05
2018-12-27T19:37:38.139Z,22.62
2018-12-27T19:40:05.982Z,22.67
2018-12-27T19:42:33.963Z,22.25
2018-12-27T19:45:01.900Z,21.75
2018-12-27T19:47:31.351Z,22.20
2018-12-27T19:49:59.526Z,22.13
2018-12-27T19:52:28.031Z,22.22
2018-12-27T19:54:56.238Z,22.37
2018-12-27T19:57:24.668Z,21.33
2018-12-27T19:59:52.869Z,21.73
2018-12-27T20:02:21.200Z,21.12
2018-12-27T20:04:49.499Z,24.15
2018-12-27T20:07:17.440Z,21.62
2018-12-27T20:09:45.311Z,23.57
2018-12-27T20:12:13.158Z,20.70
2018-12-27T20:14:40.940Z,20.45
2018-12-27T20:17:08.721Z,20.23
2018-12-27T20:19:36.616Z,20.37
2018-12-27T20:22:04.440Z,20.95
2018-12-27T20:24:32.290Z,21.10
2018-12-27T20:27:00.141Z,19.65
2018-12-27T20:29:27.940Z,18.42
2018-12-27T20:31:55.865Z,21.82
2018-12-27T20:34:23.759Z,21.80
2018-12-27T20:36:51.856Z,19.60
2018-12-27T20:39:21.728Z,22.60
2018-12-27T20:41:50.533Z,21.80
2018-12-27T20:44:32.049Z,25.02
2018-12-27T20:47:02.984Z,21.02
2018-12-27T20:49:42.824Z,21.87
2018-12-27T20:52:18.630Z,21.55
2018-12-27T20:54:52.439Z,18.42
2018-12-27T20:57:20.354Z,18.57
2018-12-27T20:59:48.152Z,19.87
2018-12-27T21:02:16.088Z,21.73
2018-12-27T21:04:43.980Z,22.10
2018-12-27T21:07:11.833Z,22.48
2018-12-27T21:09:39.885Z,23.75
2018-12-27T21:12:07.661Z,17.67
2018-12-27T21:14:35.551Z,21.35
2018-12-27T21:17:03.384Z,19.67
2018-12-27T21:19:31.274Z,20.15
2018-12-27T21:21:59.170Z,20.27
2018-12-27T21:24:26.965Z,22.20
2018-12-27T21:26:54.745Z,24.20
2018-12-27T21:29:22.676Z,23.02
2018-12-27T21:31:50.631Z,23.62
2018-12-27T21:34:18.515Z,28.25
2018-12-27T21:36:46.473Z,27.65
2018-12-27T21:39:14.329Z,28.32
2018-12-27T21:41:42.124Z,24.80
2018-12-27T21:44:09.894Z,59.00
2018-12-27T21:46:37.835Z,24.10
2018-12-27T21:49:05.649Z,24.47
2018-12-27T21:51:33.494Z,22.42
2018-12-27T21:54:02.344Z,23.47
2018-12-27T21:56:31.222Z,22.75
2018-12-27T21:58:59.047Z,24.32
2018-12-27T22:01:26.830Z,24.10
2018-12-27T22:03:54.546Z,25.80
2018-12-27T22:06:22.428Z,23.62
2018-12-27T22:08:50.250Z,21.95
2018-12-27T22:11:18.207Z,25.77
2018-12-27T22:13:46.087Z,24.50
2018-12-27T22:16:13.866Z,23.22
2018-12-27T22:18:41.777Z,21.82
2018-12-27T22:21:09.511Z,24.00
2018-12-27T22:23:37.277Z,23.60
2018-12-27T22:26:05.123Z,25.40
2018-12-27T22:28:33.206Z,22.70
2018-12-27T22:31:01.131Z,23.77
2018-12-27T22:33:29.031Z,20.70
2018-12-27T22:35:56.850Z,22.52
2018-12-27T22:38:24.780Z,23.45
2018-12-27T22:40:52.630Z,21.77
2018-12-27T22:43:21.476Z,22.07
2018-12-27T22:45:49.451Z,22.90
2018-12-27T22:48:17.221Z,22.20
2018-12-27T22:50:45.154Z,22.98
2018-12-27T22:53:13.046Z,26.37
2018-12-27T22:55:53.854Z,26.33
2018-12-27T22:58:21.579Z,23.85
2018-12-27T23:00:49.658Z,29.07
2018-12-27T23:03:17.552Z,26.97
2018-12-27T23:05:45.414Z,23.55
2018-12-27T23:08:13.258Z,24.40
2018-12-27T23:10:41.305Z,25.12
2018-12-27T23:13:09.011Z,23.65
2018-12-27T23:15:36.875Z,23.20
2018-12-27T23:18:04.793Z,22.82
2018-12-27T23:20:32.503Z,24.05
2018-12-27T23:23:00.224Z,23.35
2018-12-27T23:25:27.975Z,22.17
2018-12-27T23:27:55.844Z,22.20
2018-12-27T23:30:23.730Z,22.58
2018-12-27T23:32:51.427Z,23.77
2018-12-27T23:35:19.153Z,21.48
2018-12-27T23:37:47.041Z,23.45
2018-12-27T23:40:14.787Z,22.42
2018-12-27T23:42:42.554Z,22.65
2018-12-27T23:45:10.267Z,23.67
2018-12-27T23:47:38.057Z,22.77
2018-12-27T23:50:05.881Z,23.42
2018-12-27T23:52:33.641Z,24.57
2018-12-27T23:55:01.370Z,23.00
2018-12-27T23:57:29.282Z,23.22
2018-12-27T23:59:57.037Z,23.27
